createdAt,value
2023-04-27T00:00:39.004Z,6.72
2023-04-27T00:06:00.785Z,6.67
2023-04-27T00:11:25.798Z,6.65
2023-04-27T00:16:47.924Z,6.63
2023-04-27T00:22:09.533Z,6.58
2023-04-27T00:27:31.266Z,6.49
2023-04-27T00:32:53.528Z,6.46
2023-04-27T00:38:15.519Z,6.42
2023-04-27T00:43:45.379Z,6.36
2023-04-27T00:49:07.210Z,6.28
2023-04-27T00:54:29.292Z,6.22
2023-04-27T00:59:51.165Z,6.10
2023-04-27T01:05:13.501Z,6.13
2023-04-27T01:10:35.969Z,6.15
2023-04-27T01:15:57.754Z,6.16
2023-04-27T01:21:19.290Z,6.16
2023-04-27T01:26:41.217Z,6.11
2023-04-27T01:32:03.700Z,6.09
2023-04-27T01:37:26.905Z,6.06
2023-04-27T01:42:49.110Z,6.01
2023-04-27T01:48:12.749Z,5.98
2023-04-27T01:53:35.212Z,5.94
2023-04-27T01:58:57.318Z,5.92
2023-04-27T02:04:19.564Z,5.90
2023-04-27T02:09:41.923Z,5.89
2023-04-27T02:15:05.610Z,5.83
2023-04-27T02:20:31.488Z,5.79
2023-04-27T02:25:55.683Z,5.75
2023-04-27T02:31:17.464Z,5.67
2023-04-27T02:36:41.052Z,5.65
2023-04-27T02:42:04.191Z,5.65
2023-04-27T02:47:26.157Z,5.64
2023-04-27T02:52:48.138Z,5.66
2023-04-27T02:58:10.199Z,5.65
2023-04-27T03:03:32.148Z,5.56
2023-04-27T03:08:53.725Z,5.46
2023-04-27T03:14:15.880Z,5.36
2023-04-27T03:19:37.640Z,5.22
2023-04-27T03:24:59.524Z,5.13
2023-04-27T03:30:21.543Z,5.06
2023-04-27T03:35:43.985Z,4.97
2023-04-27T03:41:08.541Z,4.92
2023-04-27T03:46:30.894Z,4.91
2023-04-27T03:51:52.967Z,4.99
2023-04-27T03:57:14.907Z,5.11
2023-04-27T04:02:40.006Z,5.27
2023-04-27T04:08:02.081Z,5.44
2023-04-27T04:13:24.105Z,5.55
2023-04-27T04:18:46.644Z,5.67
2023-04-27T04:24:08.561Z,5.79
2023-04-27T04:29:30.793Z,6.05
2023-04-27T04:34:52.827Z,6.65
2023-04-27T04:40:15.882Z,7.15
2023-04-27T04:45:37.486Z,7.05
2023-04-27T04:50:59.312Z,7.08
2023-04-27T04:56:21.471Z,7.12
2023-04-27T05:01:43.360Z,7.28
2023-04-27T05:07:06.713Z,7.41
2023-04-27T05:12:28.547Z,7.46
2023-04-27T05:17:50.475Z,7.40
2023-04-27T05:23:12.599Z,7.56
2023-04-27T05:28:34.829Z,7.73
2023-04-27T05:33:57.362Z,7.80
2023-04-27T05:39:19.186Z,7.84
2023-04-27T05:44:43.329Z,7.92
2023-04-27T05:50:05.654Z,8.06
2023-04-27T05:55:27.606Z,8.12
2023-04-27T06:00:49.964Z,8.14
2023-04-27T06:06:13.156Z,8.24
2023-04-27T06:11:35.176Z,8.33
2023-04-27T06:16:57.410Z,8.46
2023-04-27T06:22:19.242Z,8.56
2023-04-27T06:27:41.074Z,8.61
2023-04-27T06:33:03.074Z,8.68
2023-04-27T06:38:24.629Z,8.90
2023-04-27T06:43:46.352Z,9.03
2023-04-27T06:49:07.782Z,9.13
2023-04-27T06:54:29.826Z,9.21
2023-04-27T06:59:51.938Z,9.33
2023-04-27T07:05:14.068Z,9.48
2023-04-27T07:10:36.201Z,9.55
2023-04-27T07:15:58.172Z,9.62
2023-04-27T07:21:19.856Z,9.69
2023-04-27T07:26:41.542Z,9.79
2023-04-27T07:32:08.057Z,9.95
2023-04-27T07:37:30.466Z,10.13
2023-04-27T07:42:53.463Z,10.37
2023-04-27T07:48:15.398Z,10.49
2023-04-27T07:53:37.759Z,10.74
2023-04-27T07:59:01.905Z,10.91
2023-04-27T08:04:24.313Z,11.15
2023-04-27T08:09:46.556Z,11.44
2023-04-27T08:15:11.606Z,11.60
2023-04-27T08:20:33.340Z,11.80
2023-04-27T08:25:54.949Z,12.02
2023-04-27T08:31:16.838Z,12.10
2023-04-27T08:36:38.702Z,11.92
2023-04-27T08:42:00.835Z,11.67
2023-04-27T08:47:31.405Z,11.45
2023-04-27T08:53:03.696Z,11.34
2023-04-27T08:58:41.041Z,11.27
2023-04-27T09:04:02.825Z,11.48
2023-04-27T09:09:26.289Z,11.85
2023-04-27T09:15:05.016Z,12.24
2023-04-27T09:20:28.913Z,12.24
2023-04-27T09:25:50.765Z,12.21
2023-04-27T09:31:12.718Z,12.09
2023-04-27T09:36:34.735Z,11.92
2023-04-27T09:41:56.454Z,11.97
2023-04-27T09:47:18.283Z,11.98
2023-04-27T09:52:40.078Z,11.92
2023-04-27T09:58:27.052Z,11.82
2023-04-27T10:04:07.395Z,11.61
2023-04-27T10:09:55.819Z,11.58
2023-04-27T10:15:17.759Z,11.60
2023-04-27T10:20:40.707Z,11.63
2023-04-27T10:26:07.450Z,11.67
2023-04-27T10:31:29.790Z,11.71
2023-04-27T10:37:11.288Z,11.91
2023-04-27T10:42:34.014Z,12.26
2023-04-27T10:48:03.986Z,12.36
2023-04-27T10:53:27.073Z,12.35
2023-04-27T10:58:49.681Z,12.34
2023-04-27T11:04:12.161Z,12.43
2023-04-27T11:09:34.116Z,12.33
2023-04-27T11:14:58.982Z,12.09
2023-04-27T11:20:26.593Z,11.94
2023-04-27T11:25:48.513Z,11.73
2023-04-27T11:31:11.730Z,11.65
2023-04-27T11:36:33.656Z,11.71
2023-04-27T11:41:56.412Z,11.96
2023-04-27T11:47:21.451Z,12.24
2023-04-27T11:52:49.099Z,12.31
2023-04-27T11:58:15.142Z,12.20
2023-04-27T12:03:36.864Z,12.08
2023-04-27T12:09:00.012Z,11.93
2023-04-27T12:14:21.941Z,11.86
2023-04-27T12:19:44.864Z,12.01
2023-04-27T12:25:06.802Z,12.19
2023-04-27T12:30:28.944Z,12.24
2023-04-27T12:35:50.558Z,12.39
2023-04-27T12:41:12.286Z,12.49
2023-04-27T12:46:33.976Z,12.46
2023-04-27T12:51:57.349Z,12.36
2023-04-27T12:57:19.084Z,12.36
2023-04-27T13:02:42.343Z,12.25
2023-04-27T13:08:04.847Z,12.19
2023-04-27T13:13:27.074Z,12.31
2023-04-27T13:18:52.493Z,12.46
2023-04-27T13:24:17.149Z,12.68
2023-04-27T13:29:39.028Z,12.94
2023-04-27T13:35:00.705Z,13.27
2023-04-27T13:40:22.631Z,13.57
2023-04-27T13:45:45.502Z,13.75
2023-04-27T13:51:09.404Z,13.76
2023-04-27T13:56:31.485Z,13.44
2023-04-27T14:01:53.311Z,13.13
2023-04-27T14:07:16.586Z,12.95
2023-04-27T14:12:38.566Z,12.82
2023-04-27T14:17:59.960Z,12.78
2023-04-27T14:23:22.374Z,12.59
2023-04-27T14:28:44.117Z,12.44
2023-04-27T14:34:07.051Z,12.39
2023-04-27T14:39:28.783Z,12.36
2023-04-27T14:44:51.374Z,12.27
2023-04-27T14:50:15.849Z,12.21
2023-04-27T14:55:37.285Z,12.23
2023-04-27T15:01:01.452Z,12.37
2023-04-27T15:06:28.367Z,12.38
2023-04-27T15:11:50.422Z,12.25
2023-04-27T15:17:13.431Z,12.19
2023-04-27T15:22:35.197Z,12.18
2023-04-27T15:27:56.983Z,12.07
2023-04-27T15:33:18.683Z,12.07
2023-04-27T15:38:40.644Z,12.05
2023-04-27T15:44:02.737Z,11.95
2023-04-27T15:49:24.703Z,11.81
2023-04-27T15:54:46.632Z,11.69
2023-04-27T16:00:10.511Z,11.68
2023-04-27T16:05:32.306Z,11.67
2023-04-27T16:10:54.418Z,11.72
2023-04-27T16:16:16.068Z,11.69
2023-04-27T16:21:37.682Z,11.77
2023-04-27T16:26:59.805Z,11.87
2023-04-27T16:32:23.122Z,11.84
2023-04-27T16:37:46.085Z,11.81
2023-04-27T16:43:07.802Z,11.71
2023-04-27T16:48:30.658Z,11.67
2023-04-27T16:53:52.771Z,11.63
2023-04-27T16:59:17.318Z,11.53
2023-04-27T17:04:40.510Z,11.51
2023-04-27T17:10:02.267Z,11.47
2023-04-27T17:15:26.011Z,11.37
2023-04-27T17:20:47.971Z,11.19
2023-04-27T17:26:10.196Z,11.04
2023-04-27T17:31:32.230Z,11.01
2023-04-27T17:36:53.941Z,10.88
2023-04-27T17:42:16.927Z,10.83
2023-04-27T17:47:38.872Z,10.75
2023-04-27T17:53:00.922Z,10.64
2023-04-27T17:58:22.380Z,10.53
2023-04-27T18:03:44.155Z,10.38
2023-04-27T18:09:06.851Z,10.21
2023-04-27T18:14:28.736Z,10.04
2023-04-27T18:20:00.884Z,9.90
2023-04-27T18:25:29.254Z,9.71
2023-04-27T18:30:51.285Z,9.61
2023-04-27T18:36:13.242Z,9.48
2023-04-27T18:41:35.540Z,9.36
2023-04-27T18:46:57.570Z,9.19
2023-04-27T18:52:19.306Z,9.06
2023-04-27T18:57:41.230Z,9.01
2023-04-27T19:03:04.622Z,8.82
2023-04-27T19:08:26.685Z,8.69
2023-04-27T19:13:54.557Z,8.67
2023-04-27T19:19:16.901Z,8.55
2023-04-27T19:24:39.123Z,8.36
2023-04-27T19:30:02.572Z,8.23
2023-04-27T19:35:26.494Z,8.14
2023-04-27T19:40:48.901Z,8.05
2023-04-27T19:46:10.710Z,7.94
2023-04-27T19:51:32.759Z,7.88
2023-04-27T19:56:54.797Z,7.86
2023-04-27T20:02:17.312Z,7.86
2023-04-27T20:07:39.614Z,7.84
2023-04-27T20:13:01.147Z,7.74
2023-04-27T20:18:25.149Z,7.70
2023-04-27T20:23:48.054Z,7.73
2023-04-27T20:29:09.882Z,7.77
2023-04-27T20:34:31.713Z,7.73
2023-04-27T20:39:53.939Z,7.65
2023-04-27T20:45:15.695Z,7.60
2023-04-27T20:50:40.336Z,7.61
2023-04-27T20:56:02.654Z,7.67
2023-04-27T21:01:27.793Z,7.66
2023-04-27T21:06:49.507Z,7.49
2023-04-27T21:12:11.143Z,7.36
2023-04-27T21:17:32.852Z,7.31
2023-04-27T21:22:54.790Z,7.25
2023-04-27T21:28:16.422Z,7.19
2023-04-27T21:33:40.857Z,7.03
2023-04-27T21:39:03.094Z,6.81
2023-04-27T21:44:24.615Z,6.40
2023-04-27T21:49:46.249Z,6.16
2023-04-27T21:55:08.181Z,6.08
2023-04-27T22:00:29.901Z,6.00
2023-04-27T22:05:53.337Z,5.96
2023-04-27T22:11:14.866Z,5.96
2023-04-27T22:16:36.646Z,6.08
2023-04-27T22:21:58.326Z,6.14
2023-04-27T22:27:20.002Z,6.17
2023-04-27T22:32:42.480Z,6.20
2023-04-27T22:38:04.716Z,6.09
2023-04-27T22:43:26.654Z,6.00
2023-04-27T22:48:50.419Z,6.17
2023-04-27T22:54:11.918Z,6.26
2023-04-27T22:59:33.541Z,6.38
2023-04-27T23:04:55.668Z,6.48
2023-04-27T23:10:18.985Z,6.50
2023-04-27T23:15:41.233Z,6.39
2023-04-27T23:21:03.057Z,6.29
2023-04-27T23:26:27.202Z,6.20
2023-04-27T23:31:49.531Z,6.18
2023-04-27T23:37:10.958Z,6.11
2023-04-27T23:42:33.345Z,6.13
2023-04-27T23:47:55.942Z,6.33
2023-04-27T23:53:18.821Z,6.57
2023-04-27T23:58:41.888Z,6.72
